Weather observations for the past three days for
Farmington, Four Corners Regional Airport
Imperial (Metric)
Date Time (mdt) Wind (mph) Vis. (mi.) Weather Sky Cond. Temperature (ºF) Relative Humidity Wind Chill (°F) Heat Index (°F) Pressure Precipitation (in)
Air Dwpt 6 hour altimeter (in) sea level (mb) 1 hr 3 hr 6 hr
Max. Min.
03 08:53 E 6 10.00 Fair CLR 66 48 52% 30.2 1017.2
03 07:53 E 8 10.00 Fair CLR 62.1 46.9 58% 30.2 1017.0
03 06:53 E 6 10.00 Fair CLR 57 45 64% 30.18 1016.6
03 05:53 E 6 10.00 Fair CLR 55.9 44.1 70 55.9 65% 30.17 1016.2
03 04:53 NE 5 10.00 Fair CLR 57 45 64% 30.16 1015.8
03 03:53 Calm 10.00 Fair CLR 57.9 45 62% 30.17 1015.5
03 02:53 NE 5 10.00 Fair CLR 60.1 45 58% 30.16 1015.1
03 01:53 NE 5 10.00 Fair CLR 63 46 54% 30.16 1014.9
03 00:53 NE 5 10.00 Fair CLR 64 46 52% 30.15 1014.5
02 23:53 E 6 10.00 Mostly Cloudy BKN090 69.1 45 82 66.9 42% 30.15 1014.2
02 22:53 N 5 10.00 Fair CLR 68 45 44% 30.15 1015.0
02 21:53 E 5 10.00 Fair CLR 69.1 46 44% 30.14 1014.9
02 20:53 NE 5 10.00 Fair CLR 73 45 37% 30.12 1014.4
02 19:53 NW 5 10.00 Mostly Cloudy BKN120 77 45 32% 78 30.11 1014.3
02 18:53 W 7 10.00 Mostly Cloudy BKN110 80.1 46 30% 79 30.12 1014.4
02 17:53 NW 8 G 18 10.00 Mostly Cloudy BKN120 82 46.9 88 80.1 29% 80 30.12 1014.4
02 16:53 W 24 G 33 10.00 A Few Clouds and Breezy FEW120 82 46.9 29% 80 30.12 1014.4
02 15:53 NW 12 G 18 10.00 Fair CLR 84.9 44.1 24% 82 30.13 1014.0
02 14:53 SW 14 G 22 10.00 Partly Cloudy SCT095 86 44.1 23% 83 30.14 1014.3
02 12:53 W 10 10.00 Fair CLR 82.9 45 26% 81 30.2 1016.4
02 11:53 S 6 10.00 Fair CLR 80.1 46.9 80.1 55 31% 79 30.23 1017.8
02 10:53 Calm 10.00 Fair CLR 75.9 46 35% 78 30.24 1018.1
02 09:53 E 6 10.00 Fair CLR 71.1 46.9 42% 30.24 1018.4
02 08:53 E 6 10.00 Fair CLR 64 45 50% 30.25 1018.9
02 07:53 E 7 10.00 Fair CLR 60.1 42.1 52% 30.24 1018.7
02 06:53 E 7 10.00 Fair CLR 57.9 43 58% 30.23 1018.1
02 05:53 E 6 10.00 Fair CLR 57 42.1 64.9 55.9 58% 30.22 1017.7
02 04:53 NE 3 10.00 Mostly Cloudy BKN100 57 42.1 58% 30.21 1017.3
02 03:53 E 10 10.00 A Few Clouds FEW120 60.1 42.1 52% 30.2 1016.8
02 02:53 Calm 10.00 A Few Clouds FEW120 62.1 43 50% 30.2 1016.6
02 01:53 E 5 10.00 A Few Clouds FEW120 62.1 42.1 48% 30.2 1016.9
02 00:53 N 6 10.00 Fair CLR 64 43 46% 30.19 1016.7
01 23:53 NE 5 10.00 Fair CLR 64 41 82.9 64 43% 30.18 1016.6
01 22:53 NE 6 10.00 Fair CLR 68 44.1 42% 30.18 1016.4
01 21:53 NE 6 10.00 Fair CLR 70 46 42% 30.17 1016.2
01 20:53 Calm 10.00 Fair CLR 75.9 46 35% 78 30.15 1015.3
01 19:53 W 5 10.00 Fair CLR 77 44.1 31% 78 30.14 1015.3
01 18:53 SW 8 10.00 Fair CLR 81 44.1 27% 80 30.14 1015.3
01 17:53 W 9 10.00 Fair CLR 82.9 44.1 84 75 25% 81 30.14 1015.3
01 16:53 W 9 10.00 Fair CLR 82.9 45 26% 81 30.16 1015.8
01 15:53 W 9 G 20 10.00 Fair CLR 82.9 46 27% 81 30.17 1016.1
01 14:53 SW 7 10.00 Fair CLR 82 45 27% 80 30.19 1016.9
01 13:53 NW 8 10.00 Fair CLR 79 48 34% 79 30.22 1017.9
01 12:53 W 6 10.00 Fair CLR 78.1 50 37% 79 30.24 1018.7
01 11:53 Calm 10.00 Fair CLR 75.9 51.1 75.9 53.1 42% 78 30.25 1019.3
01 10:53 NE 3 10.00 Fair CLR 72 51.1 48% 30.26 1019.6
01 09:53 Vrbl 5 10.00 Fair CLR 68 53.1 59% 30.26 1019.8
01 08:53 SE 8 10.00 Fair CLR 63 52 68% 30.26 1020.1
01 07:53 E 3 10.00 Fair CLR 57.9 53.1 84% 30.26 1020.5
01 06:53 E 6 10.00 Fair CLR 55 52 90% 30.24 1020.3
01 05:53 NE 6 10.00 Fair CLR 54 52 60.1 54 93% 30.23 1019.7
01 04:53 NE 3 10.00 Fair CLR 55 53.1 93% 30.22 1019.2
01 03:53 E 5 10.00 Fair CLR 57 55 93% 30.22 1019.3
01 02:53 Calm 10.00 Fair CLR 57.9 54 87% 30.23 1019.6
01 01:53 N 5 10.00 Fair CLR 59 55 87% 30.24 1020.0
01 00:53 NE 5 10.00 Fair CLR 59 55 87% 30.24 1020.1
31 23:53 NE 3 10.00 Fair CLR 60.1 55.9 68 60.1 86% 30.23 1019.5
31 22:53 N 5 10.00 Fair CLR 61 57.9 90% 30.24 1019.3
31 21:53 SE 3 10.00 Fair CLR 64 57 78% 30.24 1019.2
31 20:53 SE 7 10.00 Fair CLR 64.9 57 76% 30.23 1018.7
31 19:53 SE 7 10.00 Fair CLR 64.9 57 76% 30.21 1018.2
31 18:53 E 7 10.00 Fair CLR 66.9 57 71% 30.21 1018.4
31 17:53 Calm 10.00 Overcast BKN025 BKN035 OVC110 68 57 68 63 68% 30.24 1019.1 0.04
31 16:53 Calm 10.00 Partly Cloudy FEW022 SCT110 68 57.9 70% 30.24 1019.2
31 15:53 W 3 10.00 Light Rain BKN024 BKN043 OVC080 66 59 78% 30.27 1020.4
31 14:53 Calm 10.00 Light Rain BKN020 BKN080 OVC090 66 59 78% 30.28 1020.6 0.04
31 13:53 Vrbl 5 10.00 Overcast FEW060 BKN090 OVC110 64.9 57.9 78% 30.28 1020.8
31 12:53 W 10 10.00 Light Rain FEW037 OVC095 63 61 93% 30.32 1022.2 0.04
31 11:53 SW 10 10.00 Light Rain BKN046 OVC070 64.9 59 69.1 63 81% 30.34 1022.6
31 10:53 W 6 10.00 Overcast OVC075 69.1 53.1 57% 30.31 1021.3
31 09:53 N 10 10.00 Mostly Cloudy BKN100 66.9 55 66% 30.28 1020.2
Date Time (mdt) Wind (mph) Vis. (mi.) Weather Sky Cond. Air Dwpt Max. Min. Relative Humidity Wind Chill (°F) Heat Index (°F) altimeter (in) sea level (mb) 1 hr 3 hr 6 hr
6 hour
Temperature (ºF) Pressure Precipitation (in)